TNCE/EUX METAR and TAF weather

Enter ICAO airport designator
Station Type Date Time Source
TNCE METAR 2021/05/11 00:55 UTC NOAA

TNCE 110055Z AUTO 09007KT 050V120 //// // ///////// 25/22 Q1018 RE//


Station Type Date Time Source
TNCE Decoded METAR 2021/05/11 00:55 UTC NOAA

Roosevelt Airport Saint Eustatius, Netherlands Antilles (TNCE) 17-29N 062-59W 39M
May 10, 2021 - 08:55 PM EDT / 2021.05.11 0055 UTC
Wind: from the E (090 degrees) at 8 MPH (7 KT) (direction variable):0
Temperature: 77 F (25 C)
Dew Point: 71 F (22 C)
Relative Humidity: 83%
Pressure (altimeter): 30.06 in. Hg (1018 hPa)
ob: TNCE 110055Z AUTO 09007KT 050V120 //// // ///////// 25/22 Q1018 RE//
cycle: 1

Station Type Date Time Source
TNCE TAF UTC NOAA

Error!

Example: see airport list